sensor_id;sensor_type;location;lat;lon;timestamp;pressure;altitude;pressure_sealevel;temperature;humidity
71504;BME280;59323;50.874;7.028;2023-08-17T00:00:16;101357.69;;;19.93;100.00
71504;BME280;59323;50.874;7.028;2023-08-17T00:02:43;101358.06;;;19.95;100.00
71504;BME280;59323;50.874;7.028;2023-08-17T00:05:09;101367.13;;;19.95;100.00
71504;BME280;59323;50.874;7.028;2023-08-17T00:07:35;101368.72;;;19.93;100.00
71504;BME280;59323;50.874;7.028;2023-08-17T00:10:00;101375.81;;;19.94;100.00
71504;BME280;59323;50.874;7.028;2023-08-17T00:12:26;101378.25;;;19.88;100.00
71504;BME280;59323;50.874;7.028;2023-08-17T00:14:52;101386.09;;;19.90;100.00
71504;BME280;59323;50.874;7.028;2023-08-17T00:17:18;101386.88;;;19.90;100.00
71504;BME280;59323;50.874;7.028;2023-08-17T00:19:43;101386.84;;;19.94;100.00
71504;BME280;59323;50.874;7.028;2023-08-17T00:22:08;101387.25;;;19.92;100.00
71504;BME280;59323;50.874;7.028;2023-08-17T00:24:34;101392.84;;;19.85;100.00
71504;BME280;59323;50.874;7.028;2023-08-17T00:26:59;101394.00;;;19.88;100.00
71504;BME280;59323;50.874;7.028;2023-08-17T00:29:24;101395.56;;;19.89;100.00
71504;BME280;59323;50.874;7.028;2023-08-17T00:31:50;101402.66;;;19.90;100.00
71504;BME280;59323;50.874;7.028;2023-08-17T00:34:16;101408.16;;;19.90;100.00
71504;BME280;59323;50.874;7.028;2023-08-17T00:36:41;101406.59;;;19.89;100.00
71504;BME280;59323;50.874;7.028;2023-08-17T00:39:07;101400.34;;;19.85;100.00
71504;BME280;59323;50.874;7.028;2023-08-17T00:41:32;101407.38;;;19.89;100.00
71504;BME280;59323;50.874;7.028;2023-08-17T00:43:57;101401.13;;;19.85;100.00
71504;BME280;59323;50.874;7.028;2023-08-17T00:46:23;101408.59;;;19.88;100.00
71504;BME280;59323;50.874;7.028;2023-08-17T00:48:49;101410.59;;;19.84;100.00
71504;BME280;59323;50.874;7.028;2023-08-17T00:51:15;101392.03;;;19.88;100.00
71504;BME280;59323;50.874;7.028;2023-08-17T00:53:41;101400.31;;;19.88;100.00
71504;BME280;59323;50.874;7.028;2023-08-17T00:56:07;101397.97;;;19.87;100.00
71504;BME280;59323;50.874;7.028;2023-08-17T00:58:32;101386.22;;;19.79;100.00
71504;BME280;59323;50.874;7.028;2023-08-17T01:00:58;101385.44;;;19.79;100.00
71504;BME280;59323;50.874;7.028;2023-08-17T01:03:24;101386.69;;;19.74;100.00
71504;BME280;59323;50.874;7.028;2023-08-17T01:05:51;101385.97;;;19.67;100.00
71504;BME280;59323;50.874;7.028;2023-08-17T01:08:17;101380.50;;;19.63;100.00
71504;BME280;59323;50.874;7.028;2023-08-17T01:10:59;101379.38;;;19.57;100.00
71504;BME280;59323;50.874;7.028;2023-08-17T01:13:36;101378.25;;;19.54;100.00
71504;BME280;59323;50.874;7.028;2023-08-17T01:16:05;101376.28;;;19.51;100.00
71504;BME280;59323;50.874;7.028;2023-08-17T01:18:37;101353.09;;;19.42;100.00
71504;BME280;59323;50.874;7.028;2023-08-17T01:21:06;101366.84;;;19.45;100.00
71504;BME280;59323;50.874;7.028;2023-08-17T01:23:33;101375.59;;;19.37;100.00
71504;BME280;59323;50.874;7.028;2023-08-17T01:25:59;101373.66;;;19.33;100.00
71504;BME280;59323;50.874;7.028;2023-08-17T01:28:24;101384.28;;;19.35;100.00
71504;BME280;59323;50.874;7.028;2023-08-17T01:30:58;101374.44;;;19.34;100.00
71504;BME280;59323;50.874;7.028;2023-08-17T01:33:56;101383.53;;;19.31;100.00
71504;BME280;59323;50.874;7.028;2023-08-17T01:36:26;101392.59;;;19.31;100.00
71504;BME280;59323;50.874;7.028;2023-08-17T01:38:56;101392.22;;;19.29;100.00
71504;BME280;59323;50.874;7.028;2023-08-17T01:41:23;101385.91;;;19.29;100.00
71504;BME280;59323;50.874;7.028;2023-08-17T01:43:49;101390.63;;;19.32;100.00
71504;BME280;59323;50.874;7.028;2023-08-17T01:46:16;101394.16;;;19.32;100.00
71504;BME280;59323;50.874;7.028;2023-08-17T01:48:45;101396.50;;;19.34;100.00
71504;BME280;59323;50.874;7.028;2023-08-17T01:51:15;101392.97;;;19.33;100.00
71504;BME280;59323;50.874;7.028;2023-08-17T01:53:40;101386.28;;;19.31;100.00
71504;BME280;59323;50.874;7.028;2023-08-17T01:56:06;101388.63;;;19.32;100.00
71504;BME280;59323;50.874;7.028;2023-08-17T01:58:31;101392.19;;;19.33;100.00
71504;BME280;59323;50.874;7.028;2023-08-17T02:00:57;101390.56;;;19.36;100.00
71504;BME280;59323;50.874;7.028;2023-08-17T02:03:22;101387.84;;;19.32;100.00
71504;BME280;59323;50.874;7.028;2023-08-17T02:05:47;101390.19;;;19.33;100.00
71504;BME280;59323;50.874;7.028;2023-08-17T02:08:13;101392.59;;;19.31;100.00
71504;BME280;59323;50.874;7.028;2023-08-17T02:10:38;101398.50;;;19.30;100.00
71504;BME280;59323;50.874;7.028;2023-08-17T02:13:03;101391.50;;;19.22;100.00
71504;BME280;59323;50.874;7.028;2023-08-17T02:15:29;101397.38;;;19.24;100.00
71504;BME280;59323;50.874;7.028;2023-08-17T02:17:56;101392.28;;;19.22;100.00
71504;BME280;59323;50.874;7.028;2023-08-17T02:20:22;101393.91;;;19.16;100.00
71504;BME280;59323;50.874;7.028;2023-08-17T02:22:47;101387.63;;;19.16;100.00
71504;BME280;59323;50.874;7.028;2023-08-17T02:25:12;101388.03;;;19.14;100.00
71504;BME280;59323;50.874;7.028;2023-08-17T02:27:38;101387.63;;;19.16;100.00
71504;BME280;59323;50.874;7.028;2023-08-17T02:30:03;101388.03;;;19.14;100.00
71504;BME280;59323;50.874;7.028;2023-08-17T02:32:29;101376.66;;;19.09;100.00
71504;BME280;59323;50.874;7.028;2023-08-17T02:34:54;101381.69;;;19.17;100.00
71504;BME280;59323;50.874;7.028;2023-08-17T02:37:20;101378.59;;;19.12;100.00
71504;BME280;59323;50.874;7.028;2023-08-17T02:39:45;101374.31;;;19.07;100.00
71504;BME280;59323;50.874;7.028;2023-08-17T02:42:11;101375.06;;;19.11;100.00
71504;BME280;59323;50.874;7.028;2023-08-17T02:44:36;101371.91;;;19.13;100.00
71504;BME280;59323;50.874;7.028;2023-08-17T02:47:01;101367.56;;;19.12;100.00
71504;BME280;59323;50.874;7.028;2023-08-17T02:49:27;101372.72;;;19.10;100.00
71504;BME280;59323;50.874;7.028;2023-08-17T02:51:52;101361.69;;;19.10;100.00
71504;BME280;59323;50.874;7.028;2023-08-17T02:54:17;101358.13;;;19.13;100.00
71504;BME280;59323;50.874;7.028;2023-08-17T02:56:43;101343.16;;;19.14;100.00
71504;BME280;59323;50.874;7.028;2023-08-17T02:59:08;101345.13;;;19.13;100.00
71504;BME280;59323;50.874;7.028;2023-08-17T03:01:33;101340.44;;;19.10;100.00
71504;BME280;59323;50.874;7.028;2023-08-17T03:03:59;101344.72;;;19.15;100.00
71504;BME280;59323;50.874;7.028;2023-08-17T03:06:24;101335.28;;;19.12;100.00
71504;BME280;59323;50.874;7.028;2023-08-17T03:08:49;101340.38;;;19.17;100.00
71504;BME280;59323;50.874;7.028;2023-08-17T03:11:17;101340.75;;;19.19;100.00
71504;BME280;59323;50.874;7.028;2023-08-17T03:13:43;101337.19;;;19.19;100.00
71504;BME280;59323;50.874;7.028;2023-08-17T03:16:08;101332.47;;;19.19;100.00
71504;BME280;59323;50.874;7.028;2023-08-17T03:18:33;101333.25;;;19.20;100.00
71504;BME280;59323;50.874;7.028;2023-08-17T03:20:59;101330.13;;;19.18;100.00
71504;BME280;59323;50.874;7.028;2023-08-17T03:23:24;101332.06;;;19.21;100.00
71504;BME280;59323;50.874;7.028;2023-08-17T03:25:53;101331.31;;;19.17;100.00
71504;BME280;59323;50.874;7.028;2023-08-17T03:28:19;101341.09;;;19.21;100.00
71504;BME280;59323;50.874;7.028;2023-08-17T03:30:44;101345.06;;;19.20;100.00
71504;BME280;59323;50.874;7.028;2023-08-17T03:33:10;101334.06;;;19.17;100.00
71504;BME280;59323;50.874;7.028;2023-08-17T03:35:35;101336.00;;;19.20;100.00
71504;BME280;59323;50.874;7.028;2023-08-17T03:38:01;101334.06;;;19.17;100.00
71504;BME280;59323;50.874;7.028;2023-08-17T03:40:26;101338.78;;;19.16;100.00
71504;BME280;59323;50.874;7.028;2023-08-17T03:42:51;101338.41;;;19.14;100.00
71504;BME280;59323;50.874;7.028;2023-08-17T03:45:18;101342.00;;;19.11;100.00
71504;BME280;59323;50.874;7.028;2023-08-17T03:47:43;101343.19;;;19.10;100.00
71504;BME280;59323;50.874;7.028;2023-08-17T03:50:09;101342.38;;;19.13;100.00
71504;BME280;59323;50.874;7.028;2023-08-17T03:52:34;101349.06;;;19.12;100.00
71504;BME280;59323;50.874;7.028;2023-08-17T03:54:59;101344.38;;;19.09;100.00
71504;BME280;59323;50.874;7.028;2023-08-17T03:57:25;101340.84;;;19.09;100.00
71504;BME280;59323;50.874;7.028;2023-08-17T03:59:50;101350.28;;;19.08;100.00
71504;BME280;59323;50.874;7.028;2023-08-17T04:02:15;101364.88;;;19.05;100.00
71504;BME280;59323;50.874;7.028;2023-08-17T04:04:41;101360.16;;;19.05;100.00
71504;BME280;59323;50.874;7.028;2023-08-17T04:07:06;101364.88;;;19.05;100.00
71504;BME280;59323;50.874;7.028;2023-08-17T04:09:32;101371.97;;;19.06;100.00
71504;BME280;59323;50.874;7.028;2023-08-17T04:11:58;101374.34;;;19.04;100.00
71504;BME280;59323;50.874;7.028;2023-08-17T04:14:24;101380.31;;;18.95;100.00
71504;BME280;59323;50.874;7.028;2023-08-17T04:16:49;101375.28;;;18.86;100.00
71504;BME280;59323;50.874;7.028;2023-08-17T04:19:15;101373.66;;;18.85;100.00
71504;BME280;59323;50.874;7.028;2023-08-17T04:21:40;101381.56;;;18.87;100.00
71504;BME280;59323;50.874;7.028;2023-08-17T04:24:06;101378.81;;;18.87;100.00
71504;BME280;59323;50.874;7.028;2023-08-17T04:26:31;101375.66;;;18.88;100.00
71504;BME280;59323;50.874;7.028;2023-08-17T04:28:56;101376.84;;;18.87;100.00
71504;BME280;59323;50.874;7.028;2023-08-17T04:31:22;101368.19;;;18.82;100.00
71504;BME280;59323;50.874;7.028;2023-08-17T04:33:47;101374.06;;;18.84;100.00
71504;BME280;59323;50.874;7.028;2023-08-17T04:36:13;101388.63;;;18.88;100.00
71504;BME280;59323;50.874;7.028;2023-08-17T04:38:38;101391.38;;;18.88;100.00
71504;BME280;59323;50.874;7.028;2023-08-17T04:41:03;101392.56;;;18.87;100.00
71504;BME280;59323;50.874;7.028;2023-08-17T04:43:29;101388.66;;;18.81;100.00
71504;BME280;59323;50.874;7.028;2023-08-17T04:45:54;101394.53;;;18.86;100.00
71504;BME280;59323;50.874;7.028;2023-08-17T04:48:20;101405.94;;;18.85;100.00
71504;BME280;59323;50.874;7.028;2023-08-17T04:50:45;101408.31;;;18.83;100.00
71504;BME280;59323;50.874;7.028;2023-08-17T04:53:11;101401.25;;;18.78;100.00
71504;BME280;59323;50.874;7.028;2023-08-17T04:55:36;101404.44;;;18.73;100.00
71504;BME280;59323;50.874;7.028;2023-08-17T04:58:01;101404.47;;;18.69;100.00
71504;BME280;59323;50.874;7.028;2023-08-17T05:00:27;101408.81;;;18.67;100.00
71504;BME280;59323;50.874;7.028;2023-08-17T05:02:56;101415.84;;;18.75;100.00
71504;BME280;59323;50.874;7.028;2023-08-17T05:05:22;101420.16;;;18.76;100.00
71504;BME280;59323;50.874;7.028;2023-08-17T05:07:48;101420.16;;;18.76;100.00
71504;BME280;59323;50.874;7.028;2023-08-17T05:10:13;101414.69;;;18.73;100.00
71504;BME280;59323;50.874;7.028;2023-08-17T05:12:39;101409.97;;;18.69;100.00
71504;BME280;59323;50.874;7.028;2023-08-17T05:15:04;101416.69;;;18.65;100.00
71504;BME280;59323;50.874;7.028;2023-08-17T05:17:30;101413.91;;;18.68;100.00
71504;BME280;59323;50.874;7.028;2023-08-17T05:19:55;101417.47;;;18.65;100.00
71504;BME280;59323;50.874;7.028;2023-08-17T05:22:21;101419.44;;;18.65;100.00
71504;BME280;59323;50.874;7.028;2023-08-17T05:24:46;101418.66;;;18.68;100.00
71504;BME280;59323;50.874;7.028;2023-08-17T05:27:12;101428.09;;;18.67;100.00
71504;BME280;59323;50.874;7.028;2023-08-17T05:29:37;101422.97;;;18.65;100.00
71504;BME280;59323;50.874;7.028;2023-08-17T05:32:03;101419.44;;;18.68;100.00
71504;BME280;59323;50.874;7.028;2023-08-17T05:34:28;101430.44;;;18.68;100.00
71504;BME280;59323;50.874;7.028;2023-08-17T05:36:53;101427.28;;;18.70;100.00
71504;BME280;59323;50.874;7.028;2023-08-17T05:39:19;101433.56;;;18.71;100.00
71504;BME280;59323;50.874;7.028;2023-08-17T05:41:45;101424.56;;;18.63;100.00
71504;BME280;59323;50.874;7.028;2023-08-17T05:44:10;101429.69;;;18.64;100.00
71504;BME280;59323;50.874;7.028;2023-08-17T05:46:35;101441.44;;;18.72;100.00
71504;BME280;59323;50.874;7.028;2023-08-17T05:49:01;101438.69;;;18.72;100.00
71504;BME280;59323;50.874;7.028;2023-08-17T05:51:27;101426.53;;;18.66;100.00
71504;BME280;59323;50.874;7.028;2023-08-17T05:53:52;101438.28;;;18.70;100.00
71504;BME280;59323;50.874;7.028;2023-08-17T05:56:18;101439.06;;;18.71;100.00
71504;BME280;59323;50.874;7.028;2023-08-17T05:58:43;101439.84;;;18.71;100.00
71504;BME280;59323;50.874;7.028;2023-08-17T06:01:10;101438.28;;;18.70;100.00
71504;BME280;59323;50.874;7.028;2023-08-17T06:03:37;101443.00;;;18.73;100.00
71504;BME280;59323;50.874;7.028;2023-08-17T06:06:03;101430.06;;;18.66;100.00
71504;BME280;59323;50.874;7.028;2023-08-17T06:08:29;101442.63;;;18.71;100.00
71504;BME280;59323;50.874;7.028;2023-08-17T06:10:54;101442.22;;;18.69;100.00
71504;BME280;59323;50.874;7.028;2023-08-17T06:13:20;101444.97;;;18.73;100.00
71504;BME280;59323;50.874;7.028;2023-08-17T06:15:49;101442.63;;;18.71;100.00
71504;BME280;59323;50.874;7.028;2023-08-17T06:18:14;101443.81;;;18.70;100.00
71504;BME280;59323;50.874;7.028;2023-08-17T06:20:40;101438.28;;;18.70;100.00
71504;BME280;59323;50.874;7.028;2023-08-17T06:23:05;101433.97;;;18.69;100.00
71504;BME280;59323;50.874;7.028;2023-08-17T06:25:31;101438.69;;;18.72;100.00
71504;BME280;59323;50.874;7.028;2023-08-17T06:27:56;101421.00;;;18.69;100.00
71504;BME280;59323;50.874;7.028;2023-08-17T06:30:22;101436.69;;;18.76;100.00
71504;BME280;59323;50.874;7.028;2023-08-17T06:32:47;101439.84;;;18.75;100.00
71504;BME280;59323;50.874;7.028;2023-08-17T06:35:13;101439.47;;;18.73;100.00
71504;BME280;59323;50.874;7.028;2023-08-17T06:37:38;101441.78;;;18.78;100.00
71504;BME280;59323;50.874;7.028;2023-08-17T06:40:07;101444.91;;;18.80;100.00
71504;BME280;59323;50.874;7.028;2023-08-17T06:42:36;101435.91;;;18.76;100.00
71504;BME280;59323;50.874;7.028;2023-08-17T06:45:03;101431.94;;;18.80;100.00
71504;BME280;59323;50.874;7.028;2023-08-17T06:47:28;101447.66;;;18.83;100.00
71504;BME280;59323;50.874;7.028;2023-08-17T06:49:54;101443.34;;;18.82;100.00
71504;BME280;59323;50.874;7.028;2023-08-17T06:52:20;101434.66;;;18.84;100.00
71504;BME280;59323;50.874;7.028;2023-08-17T06:54:45;101446.88;;;18.86;100.00
71504;BME280;59323;50.874;7.028;2023-08-17T06:57:11;101448.84;;;18.82;100.00
71504;BME280;59323;50.874;7.028;2023-08-17T06:59:36;101442.94;;;18.87;100.00
71504;BME280;59323;50.874;7.028;2023-08-17T07:02:01;101435.84;;;18.86;100.00
71504;BME280;59323;50.874;7.028;2023-08-17T07:04:27;101442.91;;;18.91;100.00
71504;BME280;59323;50.874;7.028;2023-08-17T07:06:52;101442.91;;;18.91;100.00
71504;BME280;59323;50.874;7.028;2023-08-17T07:09:17;101445.63;;;18.94;100.00
71504;BME280;59323;50.874;7.028;2023-08-17T07:11:44;101442.09;;;18.94;100.00
71504;BME280;59323;50.874;7.028;2023-08-17T07:14:09;101455.47;;;18.95;100.00
71504;BME280;59323;50.874;7.028;2023-08-17T07:16:34;101449.59;;;18.93;100.00
71504;BME280;59323;50.874;7.028;2023-08-17T07:19:00;101439.75;;;18.92;100.00
71504;BME280;59323;50.874;7.028;2023-08-17T07:21:25;101444.44;;;18.95;100.00
71504;BME280;59323;50.874;7.028;2023-08-17T07:23:54;101440.50;;;18.96;100.00
71504;BME280;59323;50.874;7.028;2023-08-17T07:26:21;101444.41;;;19.03;100.00
71504;BME280;59323;50.874;7.028;2023-08-17T07:28:48;101455.78;;;19.05;100.00
71504;BME280;59323;50.874;7.028;2023-08-17T07:31:13;101460.06;;;19.13;100.00
71504;BME280;59323;50.874;7.028;2023-08-17T07:33:39;101459.66;;;19.14;100.00
71504;BME280;59323;50.874;7.028;2023-08-17T07:36:05;101467.88;;;19.21;100.00
71504;BME280;59323;50.874;7.028;2023-08-17T07:38:31;101468.28;;;19.20;100.00
71504;BME280;59323;50.874;7.028;2023-08-17T07:40:56;101463.94;;;19.19;100.00
71504;BME280;59323;50.874;7.028;2023-08-17T07:43:23;101467.84;;;19.25;100.00
71504;BME280;59323;50.874;7.028;2023-08-17T07:45:57;101463.91;;;19.26;100.00
71504;BME280;59323;50.874;7.028;2023-08-17T07:48:23;101465.47;;;19.27;100.00
71504;BME280;59323;50.874;7.028;2023-08-17T07:50:51;101487.03;;;19.36;100.00
71504;BME280;59323;50.874;7.028;2023-08-17T07:53:17;101477.63;;;19.33;100.00
71504;BME280;59323;50.874;7.028;2023-08-17T07:55:43;101476.84;;;19.32;100.00
71504;BME280;59323;50.874;7.028;2023-08-17T07:58:08;101477.63;;;19.33;100.00
71504;BME280;59323;50.874;7.028;2023-08-17T08:00:34;101475.28;;;19.31;100.00
71504;BME280;59323;50.874;7.028;2023-08-17T08:02:59;101478.78;;;19.36;100.00
71504;BME280;59323;50.874;7.028;2023-08-17T08:05:25;101489.81;;;19.36;100.00
71504;BME280;59323;50.874;7.028;2023-08-17T08:07:53;101474.09;;;19.29;100.00
71504;BME280;59323;50.874;7.028;2023-08-17T08:10:19;101484.25;;;19.39;100.00
71504;BME280;59323;50.874;7.028;2023-08-17T08:12:44;101477.97;;;19.39;100.00
71504;BME280;59323;50.874;7.028;2023-08-17T08:15:10;101490.56;;;19.40;100.00
71504;BME280;59323;50.874;7.028;2023-08-17T08:17:41;101497.59;;;19.44;100.00
71504;BME280;59323;50.874;7.028;2023-08-17T08:20:07;101481.84;;;19.45;100.00
71504;BME280;59323;50.874;7.028;2023-08-17T08:22:33;101479.09;;;19.45;100.00
71504;BME280;59323;50.874;7.028;2023-08-17T08:24:58;101484.56;;;19.48;100.00
71504;BME280;59323;50.874;7.028;2023-08-17T08:27:24;101493.56;;;19.63;100.00
71504;BME280;59323;50.874;7.028;2023-08-17T08:29:50;101488.00;;;19.67;100.00
71504;BME280;59323;50.874;7.028;2023-08-17T08:32:15;101475.78;;;19.68;100.00
71504;BME280;59323;50.874;7.028;2023-08-17T08:34:41;101471.47;;;19.67;100.00
71504;BME280;59323;50.874;7.028;2023-08-17T08:37:06;101473.81;;;19.68;100.00
71504;BME280;59323;50.874;7.028;2023-08-17T08:39:32;101467.47;;;19.71;100.00
71504;BME280;59323;50.874;7.028;2023-08-17T08:41:58;101468.72;;;19.67;100.00
71504;BME280;59323;50.874;7.028;2023-08-17T08:44:26;101463.22;;;19.63;100.00
71504;BME280;59323;50.874;7.028;2023-08-17T08:46:53;101467.16;;;19.66;100.00
71504;BME280;59323;50.874;7.028;2023-08-17T08:49:23;101465.91;;;19.70;100.00
71504;BME280;59323;50.874;7.028;2023-08-17T08:51:50;101462.38;;;19.70;100.00
71504;BME280;59323;50.874;7.028;2023-08-17T08:54:20;101468.56;;;19.81;100.00
71504;BME280;59323;50.874;7.028;2023-08-17T08:56:51;101460.31;;;19.77;100.00
71504;BME280;59323;50.874;7.028;2023-08-17T08:59:20;101467.00;;;19.80;100.00
71504;BME280;59323;50.874;7.028;2023-08-17T09:01:46;101470.53;;;19.80;100.00
71504;BME280;59323;50.874;7.028;2023-08-17T09:04:12;101467.81;;;19.77;100.00
71504;BME280;59323;50.874;7.028;2023-08-17T09:06:38;101474.47;;;19.83;100.00
71504;BME280;59323;50.874;7.028;2023-08-17T09:09:05;101460.69;;;19.79;100.00
71504;BME280;59323;50.874;7.028;2023-08-17T09:11:31;101470.88;;;19.86;100.00
71504;BME280;59323;50.874;7.028;2023-08-17T09:13:56;101461.03;;;19.85;100.00
71504;BME280;59323;50.874;7.028;2023-08-17T09:16:22;101461.78;;;19.89;100.00
71504;BME280;59323;50.874;7.028;2023-08-17T09:18:47;101454.25;;;19.93;100.00
71504;BME280;59323;50.874;7.028;2023-08-17T09:21:42;101448.72;;;19.93;100.00
71504;BME280;59323;50.874;7.028;2023-08-17T09:24:16;101456.94;;;20.00;100.00
71504;BME280;59323;50.874;7.028;2023-08-17T09:26:47;101460.81;;;20.06;100.00
71504;BME280;59323;50.874;7.028;2023-08-17T09:29:20;101441.47;;;20.06;100.00
71504;BME280;59323;50.874;7.028;2023-08-17T09:31:46;101458.31;;;20.15;100.00
71504;BME280;59323;50.874;7.028;2023-08-17T09:34:15;101447.75;;;20.10;100.00
71504;BME280;59323;50.874;7.028;2023-08-17T09:36:41;101456.03;;;20.10;100.00
71504;BME280;59323;50.874;7.028;2023-08-17T09:39:09;101458.72;;;20.17;100.00
71504;BME280;59323;50.874;7.028;2023-08-17T09:44:39;101452.16;;;20.04;100.00
71504;BME280;59323;50.874;7.028;2023-08-17T09:47:35;101449.06;;;19.99;100.00
71504;BME280;59323;50.874;7.028;2023-08-17T09:50:05;101458.03;;;20.06;100.00
71504;BME280;59323;50.874;7.028;2023-08-17T09:52:38;101448.66;;;20.00;100.00
71504;BME280;59323;50.874;7.028;2023-08-17T09:55:10;101445.94;;;19.97;100.00
71504;BME280;59323;50.874;7.028;2023-08-17T09:57:46;101445.53;;;19.98;100.00
71504;BME280;59323;50.874;7.028;2023-08-17T10:00:15;101445.44;;;20.05;100.00
71504;BME280;59323;50.874;7.028;2023-08-17T10:02:43;101451.28;;;20.11;100.00
71504;BME280;59323;50.874;7.028;2023-08-17T10:05:12;101445.72;;;20.14;100.00
71504;BME280;59323;50.874;7.028;2023-08-17T10:07:43;101447.50;;;20.32;100.00
71504;BME280;59323;50.874;7.028;2023-08-17T10:10:09;101437.56;;;20.38;100.00
71504;BME280;59323;50.874;7.028;2023-08-17T10:12:48;101429.22;;;20.45;100.00
71504;BME280;59323;50.874;7.028;2023-08-17T10:15:16;101439.75;;;20.53;100.00
71504;BME280;59323;50.874;7.028;2023-08-17T10:17:54;101446.38;;;20.60;100.00
71504;BME280;59323;50.874;7.028;2023-08-17T10:20:25;101435.22;;;20.67;100.00
71504;BME280;59323;50.874;7.028;2023-08-17T10:23:17;101444.59;;;20.73;100.00
71504;BME280;59323;50.874;7.028;2023-08-17T10:25:53;101438.97;;;20.80;100.00
71504;BME280;59323;50.874;7.028;2023-08-17T10:28:23;101441.75;;;20.80;100.00
71504;BME280;59323;50.874;7.028;2023-08-17T10:30:52;101439.38;;;20.82;100.00
71504;BME280;59323;50.874;7.028;2023-08-17T10:33:20;101434.16;;;20.87;100.00
71504;BME280;59323;50.874;7.028;2023-08-17T10:35:47;101438.00;;;20.94;100.00
71504;BME280;59323;50.874;7.028;2023-08-17T10:38:13;101440.97;;;21.06;100.00
71504;BME280;59323;50.874;7.028;2023-08-17T10:40:41;101438.09;;;21.13;100.00
71504;BME280;59323;50.874;7.028;2023-08-17T10:43:20;101443.06;;;21.26;100.00
71504;BME280;59323;50.874;7.028;2023-08-17T10:45:46;101439.16;;;21.19;100.00
71504;BME280;59323;50.874;7.028;2023-08-17T10:48:25;101435.63;;;21.19;100.00
71504;BME280;59323;50.874;7.028;2023-08-17T10:51:03;101441.84;;;21.27;100.00
71504;BME280;59323;50.874;7.028;2023-08-17T10:53:35;101437.09;;;21.27;100.00
71504;BME280;59323;50.874;7.028;2023-08-17T10:56:07;101424.47;;;21.26;100.00
71504;BME280;59323;50.874;7.028;2023-08-17T10:58:46;101428.03;;;21.27;100.00
71504;BME280;59323;50.874;7.028;2023-08-17T11:01:11;101456.34;;;21.34;99.63
71504;BME280;59323;50.874;7.028;2023-08-17T11:04:20;101443.00;;;21.29;100.00
71504;BME280;59323;50.874;7.028;2023-08-17T11:07:00;101445.63;;;21.36;100.00
71504;BME280;59323;50.874;7.028;2023-08-17T11:09:29;101458.09;;;21.48;100.00
71504;BME280;59323;50.874;7.028;2023-08-17T11:11:59;101456.53;;;21.47;99.90
71504;BME280;59323;50.874;7.028;2023-08-17T11:14:25;101450.16;;;21.50;99.21
71504;BME280;59323;50.874;7.028;2023-08-17T11:16:51;101445.00;;;21.52;99.32
71504;BME280;59323;50.874;7.028;2023-08-17T11:19:26;101448.75;;;21.62;99.14
71504;BME280;59323;50.874;7.028;2023-08-17T11:21:52;101449.00;;;21.71;98.34
71504;BME280;59323;50.874;7.028;2023-08-17T11:24:30;101439.13;;;21.70;96.59
71504;BME280;59323;50.874;7.028;2023-08-17T11:27:14;101439.41;;;21.75;98.71
71504;BME280;59323;50.874;7.028;2023-08-17T11:29:39;101440.84;;;21.83;98.59
71504;BME280;59323;50.874;7.028;2023-08-17T11:32:05;101441.97;;;21.86;96.97
71504;BME280;59323;50.874;7.028;2023-08-17T11:34:30;101446.53;;;21.96;96.07
71504;BME280;59323;50.874;7.028;2023-08-17T11:36:59;101434.97;;;22.01;96.39
71504;BME280;59323;50.874;7.028;2023-08-17T11:39:24;101443.88;;;22.12;95.72
71504;BME280;59323;50.874;7.028;2023-08-17T11:41:50;101453.09;;;22.26;93.99
71504;BME280;59323;50.874;7.028;2023-08-17T11:44:18;101454.88;;;22.36;94.53
71504;BME280;59323;50.874;7.028;2023-08-17T11:46:47;101445.28;;;22.40;93.66
71504;BME280;59323;50.874;7.028;2023-08-17T11:49:13;101446.44;;;22.59;95.58
71504;BME280;59323;50.874;7.028;2023-08-17T11:51:38;101447.16;;;22.63;91.69
71504;BME280;59323;50.874;7.028;2023-08-17T11:54:05;101440.75;;;22.66;93.37
71504;BME280;59323;50.874;7.028;2023-08-17T11:56:33;101444.66;;;22.69;93.63
71504;BME280;59323;50.874;7.028;2023-08-17T11:58:58;101444.09;;;22.77;94.22
71504;BME280;59323;50.874;7.028;2023-08-17T12:01:24;101436.94;;;22.80;91.02
71504;BME280;59323;50.874;7.028;2023-08-17T12:03:49;101441.88;;;22.89;88.94
71504;BME280;59323;50.874;7.028;2023-08-17T12:06:16;101441.00;;;22.92;90.90
71504;BME280;59323;50.874;7.028;2023-08-17T12:08:45;101444.81;;;22.98;91.12
71504;BME280;59323;50.874;7.028;2023-08-17T12:11:11;101424.88;;;22.87;90.05
71504;BME280;59323;50.874;7.028;2023-08-17T12:13:37;101434.59;;;22.95;91.49
71504;BME280;59323;50.874;7.028;2023-08-17T12:16:02;101440.50;;;22.97;90.72
71504;BME280;59323;50.874;7.028;2023-08-17T12:18:28;101452.44;;;23.10;90.28
71504;BME280;59323;50.874;7.028;2023-08-17T12:20:54;101443.09;;;23.04;89.74
71504;BME280;59323;50.874;7.028;2023-08-17T12:23:20;101444.22;;;23.06;91.07
71504;BME280;59323;50.874;7.028;2023-08-17T12:25:45;101438.59;;;23.10;89.53
71504;BME280;59323;50.874;7.028;2023-08-17T12:28:14;101443.25;;;23.13;89.88
71504;BME280;59323;50.874;7.028;2023-08-17T12:30:40;101443.09;;;23.20;90.81
71504;BME280;59323;50.874;7.028;2023-08-17T12:33:05;101448.63;;;23.20;88.97
71504;BME280;59323;50.874;7.028;2023-08-17T12:35:31;101452.97;;;23.21;90.73
71504;BME280;59323;50.874;7.028;2023-08-17T12:37:57;101445.16;;;23.16;88.38
71504;BME280;59323;50.874;7.028;2023-08-17T12:40:23;101440.06;;;23.15;90.08
71504;BME280;59323;50.874;7.028;2023-08-17T12:42:49;101452.63;;;23.19;91.83